Nashville, Tennessee
Current Conditions -  °F | °C
As of 7:53 PM on Sunday 25 Jan 2015 (Local Time) from KBNA Reporting Station
Overcast Overcast  
Wind Chill: 45°   Ceiling: 3700
Heat Index: 47°   Visibility: 10mi
Dew Point: 42°   Wind: 5mph
Humidity: 83%   Direction: NA
Pressure: 29.71"   Gusts: NA
Location:  36.11°N, 86.68°W
Report Text: KBNA 260153Z VRB04KT 10SM BKN037 BKN046 OVC080 08/06 A2971 RMK AO2 SLP061 T00830056 $
Loading
Personal Weather Stations






























Interactive Weather Map New forecast layout! Learn more

10-Day Weather Forecast

Advertisements
Track Severe Weather on mobile